sensor_id;sensor_type;location;lat;lon;timestamp;P1;P2;P0
72509;PMS5003;60532;56.114;40.350;2023-08-30T00:00:04;2.00;2.00;1.00
72509;PMS5003;60532;56.114;40.350;2023-08-30T00:02:05;4.00;4.00;1.00
72509;PMS5003;60532;56.114;40.350;2023-08-30T00:04:05;2.00;2.00;1.00
72509;PMS5003;60532;56.114;40.350;2023-08-30T00:06:06;4.50;3.25;1.00
72509;PMS5003;60532;56.114;40.350;2023-08-30T00:08:07;2.00;2.00;1.00
72509;PMS5003;60532;56.114;40.350;2023-08-30T00:10:07;1.00;1.00;1.00
72509;PMS5003;60532;56.114;40.350;2023-08-30T00:12:10;3.80;3.80;1.00
72509;PMS5003;60532;56.114;40.350;2023-08-30T00:14:10;4.25;2.50;1.00
72509;PMS5003;60532;56.114;40.350;2023-08-30T00:16:11;2.75;2.75;1.00
72509;PMS5003;60532;56.114;40.350;2023-08-30T00:18:13;2.40;2.40;1.20
72509;PMS5003;60532;56.114;40.350;2023-08-30T00:20:13;4.00;2.50;1.25
72509;PMS5003;60532;56.114;40.350;2023-08-30T00:22:14;2.00;2.00;1.75
72509;PMS5003;60532;56.114;40.350;2023-08-30T00:24:14;3.75;2.75;1.00
72509;PMS5003;60532;56.114;40.350;2023-08-30T00:26:15;2.50;2.50;2.00
72509;PMS5003;60532;56.114;40.350;2023-08-30T00:28:15;3.50;3.00;2.00
72509;PMS5003;60532;56.114;40.350;2023-08-30T00:30:16;3.00;3.00;1.00
72509;PMS5003;60532;56.114;40.350;2023-08-30T00:32:16;4.00;4.00;2.00
72509;PMS5003;60532;56.114;40.350;2023-08-30T00:34:17;2.75;2.75;1.75
72509;PMS5003;60532;56.114;40.350;2023-08-30T00:36:17;3.75;3.00;1.50
72509;PMS5003;60532;56.114;40.350;2023-08-30T00:38:18;3.60;3.60;1.60
72509;PMS5003;60532;56.114;40.350;2023-08-30T00:40:22;4.25;4.25;2.00
72509;PMS5003;60532;56.114;40.350;2023-08-30T00:42:22;1.40;1.40;0.60
72509;PMS5003;60532;56.114;40.350;2023-08-30T00:44:23;4.25;3.00;1.00
72509;PMS5003;60532;56.114;40.350;2023-08-30T00:46:23;1.25;1.25;1.00
72509;PMS5003;60532;56.114;40.350;2023-08-30T00:48:24;3.25;1.75;1.00
72509;PMS5003;60532;56.114;40.350;2023-08-30T00:50:25;7.00;4.50;2.00
72509;PMS5003;60532;56.114;40.350;2023-08-30T00:52:25;3.00;3.00;1.00
72509;PMS5003;60532;56.114;40.350;2023-08-30T00:54:26;3.50;3.50;2.00
72509;PMS5003;60532;56.114;40.350;2023-08-30T00:56:29;4.25;2.25;1.25
72509;PMS5003;60532;56.114;40.350;2023-08-30T00:58:30;2.80;2.80;2.00
72509;PMS5003;60532;56.114;40.350;2023-08-30T01:00:30;3.50;3.50;1.00
72509;PMS5003;60532;56.114;40.350;2023-08-30T01:02:31;3.00;3.00;2.00
72509;PMS5003;60532;56.114;40.350;2023-08-30T01:04:31;4.25;4.25;2.00
72509;PMS5003;60532;56.114;40.350;2023-08-30T01:06:32;3.20;3.20;1.00
72509;PMS5003;60532;56.114;40.350;2023-08-30T01:08:35;3.00;3.00;1.80
72509;PMS5003;60532;56.114;40.350;2023-08-30T01:13:07;3.40;3.40;1.80
72509;PMS5003;60532;56.114;40.350;2023-08-30T01:15:10;3.00;3.00;1.40
72509;PMS5003;60532;56.114;40.350;2023-08-30T01:17:11;2.20;2.20;1.40
72509;PMS5003;60532;56.114;40.350;2023-08-30T01:21:46;1.80;1.80;0.80
72509;PMS5003;60532;56.114;40.350;2023-08-30T01:23:51;5.40;5.00;2.20
72509;PMS5003;60532;56.114;40.350;2023-08-30T01:26:08;2.80;2.60;1.00
72509;PMS5003;60532;56.114;40.350;2023-08-30T01:28:10;4.00;2.80;1.00
72509;PMS5003;60532;56.114;40.350;2023-08-30T01:30:10;6.00;2.00;1.00
72509;PMS5003;60532;56.114;40.350;2023-08-30T01:32:12;5.60;5.00;2.00
72509;PMS5003;60532;56.114;40.350;2023-08-30T01:34:12;3.00;3.00;2.00
72509;PMS5003;60532;56.114;40.350;2023-08-30T01:36:13;3.50;3.50;2.00
72509;PMS5003;60532;56.114;40.350;2023-08-30T01:38:14;4.00;3.80;1.40
72509;PMS5003;60532;56.114;40.350;2023-08-30T01:40:15;3.20;3.20;2.00
72509;PMS5003;60532;56.114;40.350;2023-08-30T01:42:16;5.40;5.00;2.40
72509;PMS5003;60532;56.114;40.350;2023-08-30T01:44:22;3.00;3.00;1.80
72509;PMS5003;60532;56.114;40.350;2023-08-30T01:46:22;4.00;4.00;2.25
72509;PMS5003;60532;56.114;40.350;2023-08-30T01:48:22;3.75;3.25;2.00
72509;PMS5003;60532;56.114;40.350;2023-08-30T01:50:24;2.00;2.00;1.40
72509;PMS5003;60532;56.114;40.350;2023-08-30T01:52:25;4.80;4.00;2.00
72509;PMS5003;60532;56.114;40.350;2023-08-30T01:54:26;2.00;2.00;1.00
72509;PMS5003;60532;56.114;40.350;2023-08-30T01:56:27;4.00;3.80;1.20
72509;PMS5003;60532;56.114;40.350;2023-08-30T01:58:28;1.00;1.00;0.00
72509;PMS5003;60532;56.114;40.350;2023-08-30T02:00:28;3.00;3.00;1.50
72509;PMS5003;60532;56.114;40.350;2023-08-30T02:02:29;3.00;3.00;2.00
72509;PMS5003;60532;56.114;40.350;2023-08-30T02:04:30;3.75;2.25;1.75
72509;PMS5003;60532;56.114;40.350;2023-08-30T02:08:55;5.00;5.00;2.00
72509;PMS5003;60532;56.114;40.350;2023-08-30T02:10:55;6.00;5.00;2.00
72509;PMS5003;60532;56.114;40.350;2023-08-30T02:12:56;4.40;4.00;3.00
72509;PMS5003;60532;56.114;40.350;2023-08-30T02:14:57;4.60;4.60;2.00
72509;PMS5003;60532;56.114;40.350;2023-08-30T02:16:58;4.00;4.00;2.00
72509;PMS5003;60532;56.114;40.350;2023-08-30T02:18:59;5.00;5.00;3.00
72509;PMS5003;60532;56.114;40.350;2023-08-30T02:20:59;4.25;4.25;2.00
72509;PMS5003;60532;56.114;40.350;2023-08-30T02:23:00;5.00;5.00;3.00
72509;PMS5003;60532;56.114;40.350;2023-08-30T02:25:01;7.00;5.50;2.00
72509;PMS5003;60532;56.114;40.350;2023-08-30T02:27:04;6.20;3.80;2.60
72509;PMS5003;60532;56.114;40.350;2023-08-30T02:29:05;3.25;3.25;1.00
72509;PMS5003;60532;56.114;40.350;2023-08-30T02:31:05;3.75;3.75;2.00
72509;PMS5003;60532;56.114;40.350;2023-08-30T02:33:05;3.75;2.75;2.00
72509;PMS5003;60532;56.114;40.350;2023-08-30T02:35:06;4.75;4.75;2.00
72509;PMS5003;60532;56.114;40.350;2023-08-30T02:37:06;5.75;5.25;2.00
72509;PMS5003;60532;56.114;40.350;2023-08-30T02:39:07;2.50;2.50;2.00
72509;PMS5003;60532;56.114;40.350;2023-08-30T02:41:07;5.00;3.75;2.00
72509;PMS5003;60532;56.114;40.350;2023-08-30T02:43:08;5.50;3.50;2.00
72509;PMS5003;60532;56.114;40.350;2023-08-30T02:45:09;7.75;4.75;2.00
72509;PMS5003;60532;56.114;40.350;2023-08-30T02:47:09;3.00;3.00;2.50
72509;PMS5003;60532;56.114;40.350;2023-08-30T02:49:10;4.00;4.00;2.00
72509;PMS5003;60532;56.114;40.350;2023-08-30T02:51:11;4.40;3.60;2.00
72509;PMS5003;60532;56.114;40.350;2023-08-30T02:53:11;3.50;3.50;2.00
72509;PMS5003;60532;56.114;40.350;2023-08-30T02:55:12;3.00;3.00;2.00
72509;PMS5003;60532;56.114;40.350;2023-08-30T02:57:12;3.75;2.75;1.50
72509;PMS5003;60532;56.114;40.350;2023-08-30T02:59:13;4.75;3.00;1.00
72509;PMS5003;60532;56.114;40.350;2023-08-30T03:01:13;4.00;4.00;2.00
72509;PMS5003;60532;56.114;40.350;2023-08-30T03:03:14;4.00;4.00;2.00
72509;PMS5003;60532;56.114;40.350;2023-08-30T03:05:14;4.75;3.25;2.00
72509;PMS5003;60532;56.114;40.350;2023-08-30T03:07:14;4.00;4.00;2.00
72509;PMS5003;60532;56.114;40.350;2023-08-30T03:09:15;4.25;4.25;2.00
72509;PMS5003;60532;56.114;40.350;2023-08-30T03:11:15;4.50;4.00;2.00
72509;PMS5003;60532;56.114;40.350;2023-08-30T03:13:16;4.00;4.00;3.00
72509;PMS5003;60532;56.114;40.350;2023-08-30T03:15:16;2.25;2.25;0.00
72509;PMS5003;60532;56.114;40.350;2023-08-30T03:17:17;5.75;4.00;2.00
72509;PMS5003;60532;56.114;40.350;2023-08-30T03:19:17;6.50;5.25;2.50
72509;PMS5003;60532;56.114;40.350;2023-08-30T03:21:17;5.00;5.00;3.00
72509;PMS5003;60532;56.114;40.350;2023-08-30T03:23:18;5.50;5.50;2.50
72509;PMS5003;60532;56.114;40.350;2023-08-30T03:25:18;7.00;5.00;2.00
72509;PMS5003;60532;56.114;40.350;2023-08-30T03:27:19;4.25;4.00;3.00
72509;PMS5003;60532;56.114;40.350;2023-08-30T03:29:19;4.50;3.75;2.00
72509;PMS5003;60532;56.114;40.350;2023-08-30T03:31:21;5.50;5.50;3.00
72509;PMS5003;60532;56.114;40.350;2023-08-30T03:33:21;5.00;4.00;2.20
72509;PMS5003;60532;56.114;40.350;2023-08-30T03:35:22;6.25;6.00;2.75
72509;PMS5003;60532;56.114;40.350;2023-08-30T03:37:22;6.25;6.25;3.00
72509;PMS5003;60532;56.114;40.350;2023-08-30T03:39:22;7.75;6.00;3.00
72509;PMS5003;60532;56.114;40.350;2023-08-30T03:41:24;7.80;6.00;4.00
72509;PMS5003;60532;56.114;40.350;2023-08-30T03:43:24;4.50;3.50;3.00
72509;PMS5003;60532;56.114;40.350;2023-08-30T03:45:25;9.75;8.25;4.00
72509;PMS5003;60532;56.114;40.350;2023-08-30T03:47:25;11.75;9.00;5.00
72509;PMS5003;60532;56.114;40.350;2023-08-30T03:49:26;7.75;7.75;4.00
72509;PMS5003;60532;56.114;40.350;2023-08-30T03:51:27;5.50;5.50;4.00
72509;PMS5003;60532;56.114;40.350;2023-08-30T03:53:27;7.00;7.00;4.00
72509;PMS5003;60532;56.114;40.350;2023-08-30T03:55:27;6.50;6.50;4.00
72509;PMS5003;60532;56.114;40.350;2023-08-30T03:57:28;8.00;6.50;3.00
72509;PMS5003;60532;56.114;40.350;2023-08-30T03:59:28;6.25;6.25;3.50
72509;PMS5003;60532;56.114;40.350;2023-08-30T04:01:29;8.50;7.25;4.00
72509;PMS5003;60532;56.114;40.350;2023-08-30T04:03:29;7.25;7.00;4.00
72509;PMS5003;60532;56.114;40.350;2023-08-30T04:05:33;6.75;6.00;4.00
72509;PMS5003;60532;56.114;40.350;2023-08-30T04:07:36;7.00;7.00;4.40
72509;PMS5003;60532;56.114;40.350;2023-08-30T04:09:37;5.50;5.25;2.50
72509;PMS5003;60532;56.114;40.350;2023-08-30T04:11:37;7.50;7.00;3.00
72509;PMS5003;60532;56.114;40.350;2023-08-30T04:13:37;7.00;7.00;4.75
72509;PMS5003;60532;56.114;40.350;2023-08-30T04:15:38;6.75;6.75;4.00
72509;PMS5003;60532;56.114;40.350;2023-08-30T04:17:39;7.25;6.75;4.00
72509;PMS5003;60532;56.114;40.350;2023-08-30T04:19:39;7.25;7.00;5.00
72509;PMS5003;60532;56.114;40.350;2023-08-30T04:21:39;8.50;6.00;3.50
72509;PMS5003;60532;56.114;40.350;2023-08-30T04:23:40;10.75;8.50;5.50
72509;PMS5003;60532;56.114;40.350;2023-08-30T04:25:40;9.00;7.00;4.00
72509;PMS5003;60532;56.114;40.350;2023-08-30T04:27:41;8.75;8.00;3.75
72509;PMS5003;60532;56.114;40.350;2023-08-30T04:29:41;9.25;8.00;4.75
72509;PMS5003;60532;56.114;40.350;2023-08-30T04:31:45;9.60;8.40;3.80
72509;PMS5003;60532;56.114;40.350;2023-08-30T04:33:45;7.00;7.00;4.00
72509;PMS5003;60532;56.114;40.350;2023-08-30T04:35:52;8.00;8.00;5.00
72509;PMS5003;60532;56.114;40.350;2023-08-30T04:37:53;11.20;9.00;5.80
72509;PMS5003;60532;56.114;40.350;2023-08-30T04:39:53;8.25;8.00;5.75
72509;PMS5003;60532;56.114;40.350;2023-08-30T04:41:54;10.25;9.50;5.75
72509;PMS5003;60532;56.114;40.350;2023-08-30T04:43:55;7.60;7.60;4.80
72509;PMS5003;60532;56.114;40.350;2023-08-30T04:45:56;12.50;9.75;5.00
72509;PMS5003;60532;56.114;40.350;2023-08-30T04:47:56;8.00;8.00;5.50
72509;PMS5003;60532;56.114;40.350;2023-08-30T04:49:57;11.00;11.00;6.00
72509;PMS5003;60532;56.114;40.350;2023-08-30T04:51:57;10.75;10.75;5.50
72509;PMS5003;60532;56.114;40.350;2023-08-30T04:53:58;7.00;2.00;2.00
72509;PMS5003;60532;56.114;40.350;2023-08-30T04:55:58;13.25;11.75;6.75
72509;PMS5003;60532;56.114;40.350;2023-08-30T04:57:59;15.25;9.50;6.00
72509;PMS5003;60532;56.114;40.350;2023-08-30T04:59:59;14.00;9.25;6.00
72509;PMS5003;60532;56.114;40.350;2023-08-30T05:02:06;6.00;6.00;5.00
72509;PMS5003;60532;56.114;40.350;2023-08-30T05:04:10;10.40;9.60;5.80
72509;PMS5003;60532;56.114;40.350;2023-08-30T05:06:11;12.50;11.00;6.50
72509;PMS5003;60532;56.114;40.350;2023-08-30T05:08:14;12.20;11.20;6.00
72509;PMS5003;60532;56.114;40.350;2023-08-30T05:10:14;10.80;9.60;6.00
72509;PMS5003;60532;56.114;40.350;2023-08-30T05:12:16;9.00;9.00;5.80
72509;PMS5003;60532;56.114;40.350;2023-08-30T05:14:16;8.50;8.50;6.75
72509;PMS5003;60532;56.114;40.350;2023-08-30T05:16:17;9.00;8.50;5.00
72509;PMS5003;60532;56.114;40.350;2023-08-30T05:18:18;10.25;9.00;5.00
72509;PMS5003;60532;56.114;40.350;2023-08-30T05:20:19;11.80;8.60;5.80
72509;PMS5003;60532;56.114;40.350;2023-08-30T05:22:19;7.00;6.50;3.25
72509;PMS5003;60532;56.114;40.350;2023-08-30T05:24:20;10.75;9.00;6.75
72509;PMS5003;60532;56.114;40.350;2023-08-30T05:26:21;14.40;8.00;5.00
72509;PMS5003;60532;56.114;40.350;2023-08-30T05:28:21;11.00;11.00;6.00
72509;PMS5003;60532;56.114;40.350;2023-08-30T05:30:21;13.75;8.50;6.00
72509;PMS5003;60532;56.114;40.350;2023-08-30T05:32:22;13.25;10.50;6.00
72509;PMS5003;60532;56.114;40.350;2023-08-30T05:34:25;10.00;10.00;6.00
72509;PMS5003;60532;56.114;40.350;2023-08-30T05:36:27;10.20;9.20;5.80
72509;PMS5003;60532;56.114;40.350;2023-08-30T05:38:27;11.50;10.75;6.00
72509;PMS5003;60532;56.114;40.350;2023-08-30T05:40:28;10.25;10.00;5.50
72509;PMS5003;60532;56.114;40.350;2023-08-30T05:42:28;11.75;11.00;5.75
72509;PMS5003;60532;56.114;40.350;2023-08-30T05:44:28;10.75;10.75;6.00
72509;PMS5003;60532;56.114;40.350;2023-08-30T05:46:29;11.25;11.25;6.75
72509;PMS5003;60532;56.114;40.350;2023-08-30T05:48:30;9.00;9.00;6.00
72509;PMS5003;60532;56.114;40.350;2023-08-30T05:50:30;11.00;11.00;8.00
72509;PMS5003;60532;56.114;40.350;2023-08-30T05:52:31;12.00;10.75;7.00
72509;PMS5003;60532;56.114;40.350;2023-08-30T05:54:32;16.00;14.20;8.00
72509;PMS5003;60532;56.114;40.350;2023-08-30T05:56:33;12.80;12.80;8.00
72509;PMS5003;60532;56.114;40.350;2023-08-30T05:58:34;15.75;14.25;7.00
72509;PMS5003;60532;56.114;40.350;2023-08-30T06:00:35;12.60;12.20;7.20
72509;PMS5003;60532;56.114;40.350;2023-08-30T06:02:36;13.75;10.50;6.25
72509;PMS5003;60532;56.114;40.350;2023-08-30T06:04:36;13.00;11.75;6.25
72509;PMS5003;60532;56.114;40.350;2023-08-30T06:06:36;12.75;12.75;8.75
72509;PMS5003;60532;56.114;40.350;2023-08-30T06:08:37;13.25;12.25;8.00
72509;PMS5003;60532;56.114;40.350;2023-08-30T06:10:37;14.00;13.00;8.50
72509;PMS5003;60532;56.114;40.350;2023-08-30T06:12:39;14.60;12.80;7.20
72509;PMS5003;60532;56.114;40.350;2023-08-30T06:14:39;12.00;12.00;6.75
72509;PMS5003;60532;56.114;40.350;2023-08-30T06:16:39;12.25;10.00;7.00
72509;PMS5003;60532;56.114;40.350;2023-08-30T06:18:44;6.40;6.00;5.00
72509;PMS5003;60532;56.114;40.350;2023-08-30T06:20:44;15.00;12.00;8.25
72509;PMS5003;60532;56.114;40.350;2023-08-30T06:22:45;12.00;11.50;7.00
72509;PMS5003;60532;56.114;40.350;2023-08-30T06:24:45;11.00;11.00;7.00
72509;PMS5003;60532;56.114;40.350;2023-08-30T06:26:46;11.50;10.00;5.50
72509;PMS5003;60532;56.114;40.350;2023-08-30T06:28:46;12.00;11.00;7.00
72509;PMS5003;60532;56.114;40.350;2023-08-30T06:30:46;16.75;14.25;8.75
72509;PMS5003;60532;56.114;40.350;2023-08-30T06:32:47;17.00;14.25;8.00
72509;PMS5003;60532;56.114;40.350;2023-08-30T06:34:47;15.75;13.00;7.00
72509;PMS5003;60532;56.114;40.350;2023-08-30T06:36:48;13.00;13.00;8.00
72509;PMS5003;60532;56.114;40.350;2023-08-30T06:38:49;16.50;14.00;8.25
72509;PMS5003;60532;56.114;40.350;2023-08-30T06:40:49;14.00;12.40;6.20
72509;PMS5003;60532;56.114;40.350;2023-08-30T06:42:49;12.50;8.50;6.75
72509;PMS5003;60532;56.114;40.350;2023-08-30T06:44:50;13.25;12.00;7.00
72509;PMS5003;60532;56.114;40.350;2023-08-30T06:46:50;13.00;13.00;8.00
72509;PMS5003;60532;56.114;40.350;2023-08-30T06:48:51;13.50;13.00;6.50
72509;PMS5003;60532;56.114;40.350;2023-08-30T06:50:51;15.00;13.00;7.00
72509;PMS5003;60532;56.114;40.350;2023-08-30T06:52:51;8.25;7.75;5.75
72509;PMS5003;60532;56.114;40.350;2023-08-30T06:54:52;10.75;10.75;6.00
72509;PMS5003;60532;56.114;40.350;2023-08-30T06:56:59;12.50;10.00;6.00
72509;PMS5003;60532;56.114;40.350;2023-08-30T06:59:00;13.80;12.60;7.60
72509;PMS5003;60532;56.114;40.350;2023-08-30T07:01:00;14.75;13.00;7.25
72509;PMS5003;60532;56.114;40.350;2023-08-30T07:03:01;13.00;11.50;6.50
72509;PMS5003;60532;56.114;40.350;2023-08-30T07:05:01;15.75;13.50;7.00
72509;PMS5003;60532;56.114;40.350;2023-08-30T07:07:03;14.40;12.20;7.60
72509;PMS5003;60532;56.114;40.350;2023-08-30T07:09:03;12.50;12.25;7.00
72509;PMS5003;60532;56.114;40.350;2023-08-30T07:11:06;15.40;12.40;7.40
72509;PMS5003;60532;56.114;40.350;2023-08-30T07:13:06;11.00;10.00;5.75
72509;PMS5003;60532;56.114;40.350;2023-08-30T07:15:10;9.00;9.00;6.20
72509;PMS5003;60532;56.114;40.350;2023-08-30T07:17:11;14.25;12.00;6.75
72509;PMS5003;60532;56.114;40.350;2023-08-30T07:19:11;15.75;12.50;6.75
72509;PMS5003;60532;56.114;40.350;2023-08-30T07:21:12;13.50;13.00;9.00
72509;PMS5003;60532;56.114;40.350;2023-08-30T07:23:12;10.75;9.25;5.50
72509;PMS5003;60532;56.114;40.350;2023-08-30T07:25:12;13.25;11.25;7.00
72509;PMS5003;60532;56.114;40.350;2023-08-30T07:27:14;10.80;10.80;7.00
72509;PMS5003;60532;56.114;40.350;2023-08-30T07:29:14;14.75;14.50;7.00
72509;PMS5003;60532;56.114;40.350;2023-08-30T07:31:15;12.00;11.50;6.50
72509;PMS5003;60532;56.114;40.350;2023-08-30T07:33:18;15.20;14.00;7.40
72509;PMS5003;60532;56.114;40.350;2023-08-30T07:35:18;10.50;9.50;4.25
72509;PMS5003;60532;56.114;40.350;2023-08-30T07:37:19;16.50;12.50;7.00
72509;PMS5003;60532;56.114;40.350;2023-08-30T07:39:20;13.80;10.80;6.20
72509;PMS5003;60532;56.114;40.350;2023-08-30T07:41:22;13.50;11.00;7.00
72509;PMS5003;60532;56.114;40.350;2023-08-30T07:43:23;14.60;13.20;7.40
72509;PMS5003;60532;56.114;40.350;2023-08-30T07:45:23;11.50;9.00;5.00
72509;PMS5003;60532;56.114;40.350;2023-08-30T07:47:24;18.25;17.00;8.75
72509;PMS5003;60532;56.114;40.350;2023-08-30T07:49:24;10.00;9.00;3.75
72509;PMS5003;60532;56.114;40.350;2023-08-30T07:51:24;14.75;13.00;8.00
72509;PMS5003;60532;56.114;40.350;2023-08-30T07:53:25;17.75;15.00;7.25
72509;PMS5003;60532;56.114;40.350;2023-08-30T07:55:25;14.25;12.75;8.00
72509;PMS5003;60532;56.114;40.350;2023-08-30T07:57:26;14.00;13.50;6.75
72509;PMS5003;60532;56.114;40.350;2023-08-30T07:59:27;18.00;13.00;8.00
72509;PMS5003;60532;56.114;40.350;2023-08-30T08:01:27;17.75;14.75;8.00
72509;PMS5003;60532;56.114;40.350;2023-08-30T08:03:28;8.50;7.00;4.50
72509;PMS5003;60532;56.114;40.350;2023-08-30T08:05:28;14.75;14.00;9.00
72509;PMS5003;60532;56.114;40.350;2023-08-30T08:07:29;16.00;16.00;9.00
72509;PMS5003;60532;56.114;40.350;2023-08-30T08:09:29;14.75;14.75;9.00
72509;PMS5003;60532;56.114;40.350;2023-08-30T08:11:29;14.25;13.50;7.00
72509;PMS5003;60532;56.114;40.350;2023-08-30T08:13:30;11.00;11.00;6.50
72509;PMS5003;60532;56.114;40.350;2023-08-30T08:15:31;14.00;13.20;7.00
72509;PMS5003;60532;56.114;40.350;2023-08-30T08:17:32;13.60;11.80;7.00
72509;PMS5003;60532;56.114;40.350;2023-08-30T08:19:33;14.50;13.75;8.00
72509;PMS5003;60532;56.114;40.350;2023-08-30T08:21:34;11.25;9.75;6.00
72509;PMS5003;60532;56.114;40.350;2023-08-30T08:23:34;11.20;10.60;8.40
72509;PMS5003;60532;56.114;40.350;2023-08-30T08:25:34;20.75;18.25;9.75
72509;PMS5003;60532;56.114;40.350;2023-08-30T08:27:35;14.25;13.75;7.00
72509;PMS5003;60532;56.114;40.350;2023-08-30T08:29:36;11.40;11.40;7.40
72509;PMS5003;60532;56.114;40.350;2023-08-30T08:31:38;12.80;11.20;7.00
72509;PMS5003;60532;56.114;40.350;2023-08-30T08:33:39;10.40;10.00;4.20
72509;PMS5003;60532;56.114;40.350;2023-08-30T08:35:40;16.00;13.60;7.00
72509;PMS5003;60532;56.114;40.350;2023-08-30T08:37:40;15.00;13.25;6.75
72509;PMS5003;60532;56.114;40.350;2023-08-30T08:39:41;13.50;12.25;5.50
72509;PMS5003;60532;56.114;40.350;2023-08-30T08:41:43;15.80;15.20;8.00
72509;PMS5003;60532;56.114;40.350;2023-08-30T08:43:44;14.40;13.40;6.00
72509;PMS5003;60532;56.114;40.350;2023-08-30T08:45:45;15.00;12.00;7.00
72509;PMS5003;60532;56.114;40.350;2023-08-30T08:47:45;15.50;13.00;8.00
72509;PMS5003;60532;56.114;40.350;2023-08-30T08:49:46;16.00;14.50;8.00
72509;PMS5003;60532;56.114;40.350;2023-08-30T08:51:47;13.00;12.60;7.60
72509;PMS5003;60532;56.114;40.350;2023-08-30T08:53:47;13.75;12.50;6.50
72509;PMS5003;60532;56.114;40.350;2023-08-30T08:55:48;13.75;12.00;6.50
72509;PMS5003;60532;56.114;40.350;2023-08-30T08:57:48;15.75;12.25;8.75
72509;PMS5003;60532;56.114;40.350;2023-08-30T08:59:49;10.50;10.50;6.50
72509;PMS5003;60532;56.114;40.350;2023-08-30T09:01:50;12.00;12.00;6.80
72509;PMS5003;60532;56.114;40.350;2023-08-30T09:03:51;14.75;13.75;6.50
72509;PMS5003;60532;56.114;40.350;2023-08-30T09:05:51;18.00;14.25;7.75
72509;PMS5003;60532;56.114;40.350;2023-08-30T09:07:52;12.25;12.25;7.00
72509;PMS5003;60532;56.114;40.350;2023-08-30T09:09:54;14.40;13.40;7.00
72509;PMS5003;60532;56.114;40.350;2023-08-30T09:11:55;13.50;8.50;4.00
72509;PMS5003;60532;56.114;40.350;2023-08-30T09:13:55;10.25;10.25;5.25
72509;PMS5003;60532;56.114;40.350;2023-08-30T09:15:56;12.00;12.00;7.00
72509;PMS5003;60532;56.114;40.350;2023-08-30T09:17:56;15.25;14.00;7.00
72509;PMS5003;60532;56.114;40.350;2023-08-30T09:20:04;15.50;15.25;8.25
72509;PMS5003;60532;56.114;40.350;2023-08-30T09:22:05;10.60;10.60;6.40
72509;PMS5003;60532;56.114;40.350;2023-08-30T09:24:06;17.25;13.75;6.50
72509;PMS5003;60532;56.114;40.350;2023-08-30T09:26:06;14.60;14.20;7.60
72509;PMS5003;60532;56.114;40.350;2023-08-30T09:28:07;14.00;14.00;7.25
72509;PMS5003;60532;56.114;40.350;2023-08-30T09:30:07;14.00;14.00;8.25
72509;PMS5003;60532;56.114;40.350;2023-08-30T09:32:10;10.80;10.80;6.40
72509;PMS5003;60532;56.114;40.350;2023-08-30T09:34:11;12.75;12.75;7.00
72509;PMS5003;60532;56.114;40.350;2023-08-30T09:36:11;15.25;13.75;7.00
72509;PMS5003;60532;56.114;40.350;2023-08-30T09:38:18;17.00;16.50;8.50
72509;PMS5003;60532;56.114;40.350;2023-08-30T09:40:19;16.20;14.40;9.00
72509;PMS5003;60532;56.114;40.350;2023-08-30T09:42:20;16.40;16.00;7.00
72509;PMS5003;60532;56.114;40.350;2023-08-30T09:44:21;16.00;15.00;9.00
72509;PMS5003;60532;56.114;40.350;2023-08-30T09:46:22;17.00;16.60;9.20
72509;PMS5003;60532;56.114;40.350;2023-08-30T09:48:27;19.60;17.00;9.00
72509;PMS5003;60532;56.114;40.350;2023-08-30T09:50:28;14.00;12.80;8.00
72509;PMS5003;60532;56.114;40.350;2023-08-30T09:52:29;18.20;16.00;8.20
72509;PMS5003;60532;56.114;40.350;2023-08-30T09:54:30;16.50;14.50;7.25
72509;PMS5003;60532;56.114;40.350;2023-08-30T09:56:32;12.00;11.80;7.00
72509;PMS5003;60532;56.114;40.350;2023-08-30T09:58:33;15.40;9.40;6.00
72509;PMS5003;60532;56.114;40.350;2023-08-30T10:00:33;15.75;15.75;9.00
72509;PMS5003;60532;56.114;40.350;2023-08-30T10:02:34;12.00;12.00;7.75
72509;PMS5003;60532;56.114;40.350;2023-08-30T10:04:35;16.60;14.60;7.60
72509;PMS5003;60532;56.114;40.350;2023-08-30T10:06:39;10.40;9.40;6.80
72509;PMS5003;60532;56.114;40.350;2023-08-30T10:08:39;12.60;12.40;6.20
72509;PMS5003;60532;56.114;40.350;2023-08-30T10:10:41;8.00;8.00;4.00
72509;PMS5003;60532;56.114;40.350;2023-08-30T10:12:41;10.75;9.75;6.00
72509;PMS5003;60532;56.114;40.350;2023-08-30T10:14:45;15.60;14.40;8.20
72509;PMS5003;60532;56.114;40.350;2023-08-30T10:16:48;13.00;12.00;7.00
72509;PMS5003;60532;56.114;40.350;2023-08-30T10:18:50;11.40;11.40;7.00
72509;PMS5003;60532;56.114;40.350;2023-08-30T10:20:52;13.40;12.40;7.20
72509;PMS5003;60532;56.114;40.350;2023-08-30T10:22:55;16.20;13.40;8.00
72509;PMS5003;60532;56.114;40.350;2023-08-30T10:25:01;12.40;11.00;6.20
72509;PMS5003;60532;56.114;40.350;2023-08-30T10:27:04;11.60;10.80;6.60
72509;PMS5003;60532;56.114;40.350;2023-08-30T10:29:05;11.80;11.40;6.60
72509;PMS5003;60532;56.114;40.350;2023-08-30T10:31:07;12.00;12.00;6.40
72509;PMS5003;60532;56.114;40.350;2023-08-30T10:33:11;11.40;11.00;7.00
72509;PMS5003;60532;56.114;40.350;2023-08-30T10:35:13;12.00;10.60;7.00
72509;PMS5003;60532;56.114;40.350;2023-08-30T10:37:14;9.00;9.00;5.60
72509;PMS5003;60532;56.114;40.350;2023-08-30T10:39:15;8.00;8.00;4.00
72509;PMS5003;60532;56.114;40.350;2023-08-30T10:41:19;13.50;11.75;7.00
72509;PMS5003;60532;56.114;40.350;2023-08-30T10:43:29;13.20;11.60;6.80
72509;PMS5003;60532;56.114;40.350;2023-08-30T10:45:30;12.80;12.60;7.00
72509;PMS5003;60532;56.114;40.350;2023-08-30T10:47:31;12.25;12.25;6.75
72509;PMS5003;60532;56.114;40.350;2023-08-30T10:49:38;13.00;13.00;8.00
72509;PMS5003;60532;56.114;40.350;2023-08-30T10:51:39;13.20;11.80;6.00
72509;PMS5003;60532;56.114;40.350;2023-08-30T10:53:39;11.50;11.25;6.75
72509;PMS5003;60532;56.114;40.350;2023-08-30T10:55:40;18.50;14.25;7.50
72509;PMS5003;60532;56.114;40.350;2023-08-30T10:57:43;11.25;10.00;5.75
72509;PMS5003;60532;56.114;40.350;2023-08-30T11:00:03;13.80;10.00;6.00
72509;PMS5003;60532;56.114;40.350;2023-08-30T11:02:04;13.20;12.00;7.00
72509;PMS5003;60532;56.114;40.350;2023-08-30T11:04:05;16.25;14.25;8.50
72509;PMS5003;60532;56.114;40.350;2023-08-30T11:06:06;13.60;12.00;6.00
72509;PMS5003;60532;56.114;40.350;2023-08-30T11:08:10;12.40;11.00;7.20
72509;PMS5003;60532;56.114;40.350;2023-08-30T11:10:12;8.80;7.80;3.00
72509;PMS5003;60532;56.114;40.350;2023-08-30T11:12:12;9.80;9.80;6.00
72509;PMS5003;60532;56.114;40.350;2023-08-30T11:14:13;10.50;8.75;6.00
72509;PMS5003;60532;56.114;40.350;2023-08-30T11:16:20;13.40;11.00;7.20
72509;PMS5003;60532;56.114;40.350;2023-08-30T11:18:21;10.60;10.20;6.80
72509;PMS5003;60532;56.114;40.350;2023-08-30T11:20:22;11.20;9.60;5.00
72509;PMS5003;60532;56.114;40.350;2023-08-30T11:22:23;11.25;9.50;5.25
72509;PMS5003;60532;56.114;40.350;2023-08-30T11:24:23;12.75;8.75;6.00
72509;PMS5003;60532;56.114;40.350;2023-08-30T11:26:24;8.00;5.75;2.00
72509;PMS5003;60532;56.114;40.350;2023-08-30T11:28:24;12.25;11.25;6.75
72509;PMS5003;60532;56.114;40.350;2023-08-30T11:30:25;8.50;7.00;2.75
72509;PMS5003;60532;56.114;40.350;2023-08-30T11:32:25;9.75;8.50;5.25
72509;PMS5003;60532;56.114;40.350;2023-08-30T11:34:28;13.50;10.50;6.75